Time;durP1;ratioP1;P1;durP2;ratioP2;P2;SDS_P1;SDS_P2;PMS_P1;PMS_P2;Temp;Humidity;BMP_temperature;BMP_pressure;BME280_temperature;BME280_humidity;BME280_pressure;Samples;Min_cycle;Max_cycle;Signal;HPM_P1;HPM_P2
2022/05/27 00:02:15;;;;;;;;;;;;;;;11.29;78.13;97811.34;110248;1248;59681;-64
2022/05/27 00:04:44;;;;;;;4.40;3.10;;;;;;;11.26;76.64;97812.43;109868;1250;59748;-69
2022/05/27 00:07:14;;;;;;;4.50;2.40;;;;;;;11.25;76.90;97809.68;110026;1249;71541;-67
2022/05/27 00:09:44;;;;;;;4.30;2.20;;;;;;;11.26;75.14;97805.98;110171;1249;67960;-65
2022/05/27 00:12:14;;;;;;;3.80;2.50;;;;;;;11.27;74.64;97806.07;110005;1250;69499;-72
2022/05/27 00:14:45;;;;;;;3.80;3.20;;;;;;;11.29;76.85;97803.48;109725;1250;59739;-69
2022/05/27 00:17:16;;;;;;;4.30;3.40;;;;;;;11.33;78.61;97800.46;109829;1250;59748;-69
2022/05/27 00:19:46;;;;;;;4.00;3.10;;;;;;;11.37;78.68;97797.02;109827;1250;70529;-66
2022/05/27 00:22:17;;;;;;;3.50;3.00;;;;;;;11.41;79.59;97798.46;109913;1250;67751;-65
2022/05/27 00:24:47;;;;;;;2.60;2.30;;;;;;;11.45;77.57;97794.81;110066;1250;69611;-65
2022/05/27 00:27:19;;;;;;;5.90;4.20;;;;;;;11.52;80.62;97794.16;109998;1250;59703;-65
2022/05/27 00:29:49;;;;;;;5.50;3.70;;;;;;;11.59;81.22;97794.20;110048;1250;59752;-71
2022/05/27 00:32:31;;;;;;;4.00;3.40;;;;;;;11.67;81.28;97791.56;110043;1250;72343;-66
2022/05/27 00:35:01;;;;;;;3.80;2.70;;;;;;;11.72;81.00;97790.80;109875;1249;67798;-65
2022/05/27 00:37:31;;;;;;;4.30;3.20;;;;;;;11.78;80.41;97793.04;110056;1249;68531;-66
2022/05/27 00:40:01;;;;;;;3.70;3.10;;;;;;;11.82;78.22;97790.67;109751;1250;59737;-67
2022/05/27 00:42:33;;;;;;;4.90;3.00;;;;;;;11.84;77.21;97787.73;110064;1250;59752;-66
2022/05/27 00:45:03;;;;;;;3.70;2.40;;;;;;;11.86;78.02;97792.16;110186;1250;71781;-63
2022/05/27 00:47:38;;;;;;;2.70;2.30;;;;;;;11.86;76.45;97789.04;110063;1249;67902;-66
2022/05/27 00:50:11;;;;;;;3.70;2.70;;;;;;;11.85;75.06;97786.85;109833;1250;68238;-65
2022/05/27 00:52:44;;;;;;;2.40;2.10;;;;;;;11.83;75.46;97790.10;110154;1250;59823;-64
2022/05/27 00:55:20;;;;;;;4.50;3.60;;;;;;;11.83;78.69;97786.25;109729;1251;59770;-66
2022/05/27 00:58:16;;;;;;;3.90;3.30;;;;;;;11.83;81.03;97789.03;110019;1250;71543;-66
2022/05/27 01:00:47;;;;;;;4.20;3.00;;;;;;;11.84;80.36;97787.09;110164;1250;68562;-69
2022/05/27 01:03:18;;;;;;;4.20;3.40;;;;;;;11.85;80.44;97784.55;110173;1250;69220;-65
2022/05/27 01:05:48;;;;;;;3.40;2.50;;;;;;;11.86;80.19;97781.52;110061;1250;59682;-70
2022/05/27 01:08:23;;;;;;;3.70;2.60;;;;;;;11.88;77.84;97781.04;109949;1250;59698;-69
2022/05/27 01:11:14;;;;;;;3.20;2.80;;;;;;;11.88;76.66;97778.75;109992;1250;71632;-70
2022/05/27 01:14:14;;;;;;;3.50;2.70;;;;;;;11.86;75.94;97778.35;109989;1250;67884;-66
2022/05/27 01:17:15;;;;;;;3.20;2.40;;;;;;;11.83;75.62;97778.05;110104;1249;69664;-72
2022/05/27 01:20:19;;;;;;;3.20;2.80;;;;;;;11.78;76.45;97776.83;110075;1250;59691;-72
2022/05/27 01:23:21;;;;;;;4.10;3.40;;;;;;;11.75;78.73;97780.51;110009;1249;59705;-71
2022/05/27 01:26:12;;;;;;;6.30;3.30;;;;;;;11.75;81.15;97777.38;110001;1250;70746;-73
2022/05/27 01:28:42;;;;;;;3.20;2.80;;;;;;;11.75;81.79;97778.27;109849;1250;67060;-69
2022/05/27 01:31:27;;;;;;;;;;;;;;;11.76;81.92;97777.67;110024;1250;67624;-70
2022/05/27 01:34:03;;;;;;;6.00;3.40;;;;;;;11.77;81.68;97775.48;110011;1251;59749;-71
2022/05/27 01:37:00;;;;;;;4.80;3.50;;;;;;;11.77;81.47;97775.52;110060;1250;59725;-71
2022/05/27 01:39:36;;;;;;;3.90;3.40;;;;;;;11.76;82.05;97774.72;109993;1250;71751;-69
2022/05/27 01:42:49;;;;;;;5.50;3.80;;;;;;;11.79;81.91;97774.42;110020;1250;68262;-68
2022/05/27 01:45:43;;;;;;;4.40;3.20;;;;;;;11.83;81.44;97769.81;109780;1251;68704;-71
2022/05/27 01:48:25;;;;;;;4.40;3.20;;;;;;;11.85;81.94;97763.42;109855;1250;59753;-70
2022/05/27 01:51:10;;;;;;;3.20;2.60;;;;;;;11.90;81.11;97768.99;109866;1250;59687;-71
2022/05/27 01:53:49;;;;;;;3.90;3.20;;;;;;;11.95;81.29;97768.80;109658;1252;70810;-72
2022/05/27 01:56:28;;;;;;;3.70;3.00;;;;;;;12.01;81.66;97765.73;109838;1251;67725;-71
2022/05/27 01:59:00;;;;;;;4.20;3.20;;;;;;;12.05;81.51;97765.42;109928;1250;69240;-71
2022/05/27 02:01:36;;;;;;;4.80;3.10;;;;;;;12.10;81.35;97763.99;109983;1251;59746;-73
2022/05/27 02:04:17;;;;;;;3.10;2.80;;;;;;;12.17;80.85;97766.86;109973;1250;59690;-70
2022/05/27 02:06:56;;;;;;;3.90;3.50;;;;;;;12.20;80.37;97764.14;109828;1250;69906;-72
2022/05/27 02:09:36;;;;;;;4.10;3.20;;;;;;;12.21;79.44;97766.17;109858;1250;68479;-72
2022/05/27 02:12:15;;;;;;;3.70;3.40;;;;;;;12.22;80.90;97768.36;109886;1251;69417;-74
2022/05/27 02:14:59;;;;;;;4.30;3.00;;;;;;;12.24;81.65;97763.48;110027;1251;59698;-72
2022/05/27 02:17:35;;;;;;;4.30;3.10;;;;;;;12.29;81.80;97770.54;109913;1251;59708;-68
2022/05/27 02:20:16;;;;;;;5.40;3.00;;;;;;;12.32;81.08;97769.89;109989;1251;70958;-70
2022/05/27 02:22:52;;;;;;;4.30;3.90;;;;;;;12.34;78.63;97767.33;109900;1251;68208;-67
2022/05/27 02:25:32;;;;;;;3.80;3.30;;;;;;;12.32;77.60;97769.77;110018;1250;67667;-68
2022/05/27 02:28:08;;;;;;;;;;;;;;;12.28;79.43;97776.02;110047;1251;59674;-68
2022/05/27 02:30:44;;;;;;;4.50;3.30;;;;;;;12.26;82.45;97772.16;109974;1251;59703;-68
2022/05/27 02:36:15;;;;;;;4.30;3.40;;;;;;;12.27;82.99;97770.48;109971;1250;68574;-70
2022/05/27 02:38:44;;;;;;;3.50;3.20;;;;;;;12.29;80.94;97773.82;110032;1250;69232;-71
2022/05/27 02:41:32;;;;;;;3.50;3.10;;;;;;;12.32;78.50;97773.28;109852;1250;59775;-68
2022/05/27 02:44:21;;;;;;;3.00;2.60;;;;;;;12.32;77.72;97777.92;110041;1249;59702;-72
2022/05/27 02:46:51;;;;;;;;;;;;;;;12.34;80.31;97783.89;109851;1250;71510;-70
2022/05/27 02:49:40;;;;;;;3.80;3.50;;;;;;;12.37;81.99;97782.30;109865;1251;68442;-71
2022/05/27 02:52:31;;;;;;;4.60;3.30;;;;;;;12.42;82.04;97781.06;109866;1251;69426;-66
2022/05/27 02:55:14;;;;;;;4.80;4.00;;;;;;;12.47;82.14;97779.63;109894;1251;59751;-66
2022/05/27 02:57:49;;;;;;;5.00;3.50;;;;;;;12.50;81.16;97780.49;109990;1251;59696;-67
2022/05/27 03:00:25;;;;;;;3.90;3.10;;;;;;;12.52;82.48;97779.78;109640;1251;70401;-72
2022/05/27 03:02:59;;;;;;;4.70;3.40;;;;;;;12.55;82.72;97782.00;109700;1251;67469;-64
2022/05/27 03:05:52;;;;;;;4.70;3.50;;;;;;;12.58;83.34;97780.71;109707;1251;69379;-66
2022/05/27 03:09:06;;;;;;;3.60;3.00;;;;;;;12.62;82.92;97779.02;109694;1251;59736;-72
2022/05/27 03:11:44;;;;;;;3.90;3.30;;;;;;;12.68;82.56;97778.77;109824;1252;59775;-70
2022/05/27 03:14:31;;;;;;;4.40;3.50;;;;;;;12.71;82.33;97779.52;109874;1250;71526;-70
2022/05/27 03:17:19;;;;;;;4.50;3.10;;;;;;;12.76;82.13;97777.45;109922;1250;68559;-69
2022/05/27 03:20:16;;;;;;;4.00;2.50;;;;;;;12.81;82.11;97781.12;109923;1251;68623;-67
2022/05/27 03:23:02;;;;;;;3.90;3.30;;;;;;;12.83;81.75;97783.02;109882;1250;59758;-70
2022/05/27 03:25:50;;;;;;;4.40;3.20;;;;;;;12.86;82.16;97782.86;109810;1250;59770;-71
2022/05/27 03:28:31;;;;;;;4.90;3.60;;;;;;;12.89;82.41;97784.71;109899;1251;70791;-65
2022/05/27 03:31:52;;;;;;;5.30;3.60;;;;;;;12.96;81.60;97786.61;109642;1251;67825;-71
2022/05/27 03:34:46;;;;;;;4.80;3.80;;;;;;;13.03;80.51;97788.69;109272;1257;68481;-70
2022/05/27 03:37:18;;;;;;;4.40;3.30;;;;;;;13.10;80.28;97787.13;109311;1257;59820;-69
2022/05/27 03:40:21;;;;;;;6.50;3.40;;;;;;;13.13;80.19;97788.80;109105;1257;59701;-71
2022/05/27 03:42:52;;;;;;;4.20;3.50;;;;;;;13.14;79.49;97786.63;109256;1259;70869;-66
2022/05/27 03:45:24;;;;;;;3.60;3.20;;;;;;;13.12;79.91;97793.39;109201;1257;68598;-68
2022/05/27 03:47:54;;;;;;;4.20;3.00;;;;;;;13.11;80.90;97802.02;109323;1257;69253;-70
2022/05/27 03:50:26;;;;;;;4.00;3.40;;;;;;;13.10;81.23;97805.30;109248;1259;60158;-68
2022/05/27 03:52:56;;;;;;;4.40;4.00;;;;;;;13.10;80.82;97804.56;109150;1257;59691;-72
2022/05/27 03:55:26;;;;;;;5.20;3.70;;;;;;;13.08;81.11;97798.84;109322;1257;69848;-71
2022/05/27 03:57:55;;;;;;;;;;;;;;;13.08;81.69;97802.10;109358;1257;68607;-72
2022/05/27 04:00:25;;;;;;;4.00;3.50;;;;;;;13.11;81.91;97803.47;109261;1257;68510;-72
2022/05/27 04:02:54;;;;;;;4.90;3.00;;;;;;;13.15;81.50;97803.99;109021;1259;59685;-71
2022/05/27 04:05:26;;;;;;;5.40;4.00;;;;;;;13.20;81.31;97802.89;109123;1259;59769;-70
2022/05/27 04:07:55;;;;;;;5.40;3.80;;;;;;;13.23;80.22;97800.24;109143;1257;72071;-72
2022/05/27 04:10:25;;;;;;;4.90;3.50;;;;;;;13.28;79.70;97802.90;109323;1253;68733;-71
2022/05/27 04:12:54;;;;;;;4.70;3.80;;;;;;;13.33;78.56;97805.17;109562;1251;69454;-70
2022/05/27 04:15:23;;;;;;;4.80;3.90;;;;;;;13.36;79.75;97806.52;109927;1251;59673;-72
2022/05/27 04:17:52;;;;;;;5.20;4.10;;;;;;;13.41;79.77;97805.73;109921;1249;59734;-73
2022/05/27 04:20:21;;;;;;;5.20;3.80;;;;;;;13.49;79.54;97805.59;109999;1251;71566;-66
2022/05/27 04:22:54;;;;;;;4.90;4.00;;;;;;;13.61;78.99;97806.94;110045;1250;68009;-69
2022/05/27 04:25:24;;;;;;;5.40;4.30;;;;;;;13.73;78.65;97808.05;109832;1251;69457;-66
2022/05/27 04:27:53;;;;;;;5.00;3.60;;;;;;;13.84;77.89;97804.29;109983;1250;59741;-72
2022/05/27 04:30:24;;;;;;;3.80;3.00;;;;;;;13.90;77.66;97804.45;109788;1251;59710;-68
2022/05/27 04:32:53;;;;;;;4.10;3.00;;;;;;;14.01;77.15;97799.92;109947;1250;71546;-65
2022/05/27 04:35:23;;;;;;;5.60;5.00;;;;;;;14.11;75.99;97802.98;109962;1250;67570;-70
2022/05/27 04:37:52;;;;;;;4.50;3.90;;;;;;;14.20;76.16;97804.33;110112;1249;68742;-70
2022/05/27 04:40:22;;;;;;;4.70;3.10;;;;;;;14.31;75.78;97801.36;110057;1250;59709;-67
2022/05/27 04:42:51;;;;;;;3.20;2.90;;;;;;;14.45;74.96;97803.32;110007;1251;59612;-66
2022/05/27 04:45:21;;;;;;;4.40;3.80;;;;;;;14.60;74.01;97802.63;109812;1251;71370;-66
2022/05/27 04:47:51;;;;;;;4.70;3.50;;;;;;;14.73;73.30;97802.47;109960;1250;67670;-66
2022/05/27 04:50:20;;;;;;;4.90;3.50;;;;;;;14.85;73.05;97800.95;109894;1251;68727;-71
2022/05/27 04:52:51;;;;;;;4.10;3.20;;;;;;;14.97;72.35;97802.37;109914;1250;59770;-72
2022/05/27 04:55:22;;;;;;;4.50;3.50;;;;;;;15.11;72.40;97802.26;109958;1250;59669;-67
2022/05/27 04:57:54;;;;;;;3.20;2.70;;;;;;;15.24;71.74;97797.23;109957;1251;71652;-66
2022/05/27 05:00:27;;;;;;;5.00;3.50;;;;;;;15.38;71.79;97792.89;110007;1250;67037;-68
2022/05/27 05:02:56;;;;;;;6.50;3.70;;;;;;;15.55;71.44;97785.65;110062;1250;69232;-67
2022/05/27 05:05:28;;;;;;;4.00;3.50;;;;;;;15.82;71.34;97785.04;109997;1251;60074;-71
2022/05/27 05:08:22;;;;;;;5.00;3.00;;;;;;;16.15;70.08;97788.45;109912;1251;59676;-70
2022/05/27 05:10:53;;;;;;;4.80;3.20;;;;;;;16.50;68.00;97791.59;110005;1250;71533;-67
2022/05/27 05:13:22;;;;;;;3.80;2.80;;;;;;;16.92;67.50;97791.13;110017;1250;69963;-67
2022/05/27 05:15:52;;;;;;;5.10;3.40;;;;;;;17.36;63.80;97797.53;110087;1250;69206;-66
2022/05/27 05:18:21;;;;;;;5.40;3.40;;;;;;;17.69;63.56;97801.50;109890;1251;60178;-66
2022/05/27 05:20:50;;;;;;;3.70;2.80;;;;;;;17.99;63.55;97800.69;110047;1250;59752;-69
2022/05/27 05:23:20;;;;;;;3.90;2.70;;;;;;;18.27;61.97;97799.58;110022;1250;71595;-66
2022/05/27 05:25:57;;;;;;;4.90;2.90;;;;;;;18.53;60.43;97807.77;109858;1251;67562;-66
2022/05/27 05:28:34;;;;;;;5.40;3.00;;;;;;;18.61;59.02;97808.73;110061;1250;68636;-68
2022/05/27 05:31:03;;;;;;;;;;;;;;;18.65;58.38;97806.21;109738;1250;59819;-67
2022/05/27 05:33:33;;;;;;;3.40;3.10;;;;;;;18.62;58.12;97801.98;110123;1250;59707;-66
2022/05/27 05:36:03;;;;;;;4.80;3.40;;;;;;;18.62;57.44;97801.03;110085;1250;71819;-67
2022/05/27 05:38:32;;;;;;;3.70;2.80;;;;;;;18.54;57.30;97796.02;110172;1250;68600;-66
2022/05/27 05:41:01;;;;;;;5.10;3.20;;;;;;;18.42;57.98;97794.56;110139;1250;69397;-66
2022/05/27 05:43:31;;;;;;;5.20;3.10;;;;;;;18.25;58.25;97790.79;109833;1250;59702;-71
2022/05/27 05:46:01;;;;;;;4.20;3.30;;;;;;;18.20;58.75;97785.86;109987;1249;59705;-66
2022/05/27 05:48:30;;;;;;;4.70;3.40;;;;;;;18.20;58.85;97787.02;110101;1250;71667;-70
2022/05/27 05:50:59;;;;;;;4.70;3.30;;;;;;;18.19;58.20;97783.44;110113;1249;67594;-67
2022/05/27 05:53:28;;;;;;;4.60;3.50;;;;;;;18.10;57.99;97786.81;110059;1248;69632;-69
2022/05/27 05:55:59;;;;;;;5.50;3.40;;;;;;;18.16;58.11;97791.47;110038;1248;59789;-66
2022/05/27 05:58:28;;;;;;;3.90;2.90;;;;;;;18.22;58.36;97793.13;109811;1250;59677;-70
2022/05/27 06:00:57;;;;;;;3.60;3.00;;;;;;;18.32;58.00;97790.77;110048;1249;71715;-69
2022/05/27 06:03:26;;;;;;;4.00;3.40;;;;;;;18.40;57.54;97792.10;109768;1248;68747;-68
2022/05/27 06:05:55;;;;;;;6.40;3.20;;;;;;;18.34;57.48;97791.10;110009;1250;68752;-68
2022/05/27 06:08:25;;;;;;;3.10;2.60;;;;;;;18.38;57.25;97789.86;109942;1250;59777;-71
2022/05/27 06:10:54;;;;;;;5.10;3.10;;;;;;;18.54;57.63;97791.92;109829;1251;59665;-69
2022/05/27 06:13:25;;;;;;;4.30;2.90;;;;;;;18.67;56.83;97797.38;110083;1250;70782;-73
2022/05/27 06:15:55;;;;;;;4.80;3.10;;;;;;;18.71;57.20;97793.42;110013;1250;68112;-71
2022/05/27 06:18:24;;;;;;;4.20;2.90;;;;;;;18.93;56.27;97792.70;109894;1251;69418;-69
2022/05/27 06:20:53;;;;;;;4.40;3.00;;;;;;;19.12;55.90;97790.75;109843;1251;59748;-71
2022/05/27 06:23:22;;;;;;;4.00;2.50;;;;;;;19.01;55.75;97786.36;110096;1249;59669;-74
2022/05/27 06:25:59;;;;;;;4.20;2.70;;;;;;;19.14;55.79;97790.25;110105;1250;70766;-68
2022/05/27 06:36:57;;;;;;;4.10;3.10;;;;;;;19.86;54.56;97789.91;109992;1250;59807;-67
2022/05/27 06:39:28;;;;;;;3.30;2.50;;;;;;;19.97;54.00;97789.22;110148;1250;71511;-68
2022/05/27 06:42:05;;;;;;;4.10;3.10;;;;;;;19.78;54.48;97784.14;109830;1251;68860;-67
2022/05/27 06:44:56;;;;;;;4.60;2.70;;;;;;;19.74;55.12;97786.70;110083;1250;68866;-72
2022/05/27 06:47:26;;;;;;;3.80;2.60;;;;;;;20.05;54.54;97785.88;110154;1250;59701;-69
2022/05/27 06:49:55;;;;;;;4.30;3.10;;;;;;;20.18;54.15;97787.50;110166;1249;59736;-69
2022/05/27 06:52:24;;;;;;;5.70;2.70;;;;;;;20.10;54.30;97786.42;109905;1248;69620;-69
2022/05/27 06:54:53;;;;;;;3.30;2.70;;;;;;;20.14;53.70;97784.77;109781;1250;68442;-70
2022/05/27 06:57:22;;;;;;;;;;;;;;;20.31;54.01;97786.79;110121;1250;69438;-71
2022/05/27 06:59:52;;;;;;;3.00;2.70;;;;;;;20.28;53.66;97782.75;110146;1250;59752;-68
2022/05/27 07:02:22;;;;;;;3.90;3.10;;;;;;;20.16;54.09;97781.60;110160;1250;59675;-67
2022/05/27 07:04:51;;;;;;;4.10;3.70;;;;;;;20.20;53.89;97777.98;110135;1247;70812;-70
2022/05/27 07:07:27;;;;;;;3.70;2.80;;;;;;;20.17;53.58;97780.89;110142;1250;66620;-67
2022/05/27 07:09:56;;;;;;;5.20;3.40;;;;;;;20.03;54.35;97780.24;109944;1248;68700;-69
2022/05/27 07:12:25;;;;;;;4.10;2.80;;;;;;;20.01;54.04;97781.73;110201;1250;59753;-70
2022/05/27 07:14:54;;;;;;;3.90;2.70;;;;;;;20.01;53.86;97782.25;110124;1250;59745;-69
2022/05/27 07:17:23;;;;;;;4.20;3.10;;;;;;;20.19;53.49;97779.15;109909;1250;71597;-70
2022/05/27 07:19:53;;;;;;;4.60;3.80;;;;;;;20.18;53.80;97780.48;109960;1250;68702;-70
2022/05/27 07:22:22;;;;;;;;;;;;;;;20.25;53.88;97777.70;109992;1250;69528;-68
2022/05/27 07:24:51;;;;;;;3.60;2.60;;;;;;;19.96;54.35;97775.88;110118;1250;59674;-68
2022/05/27 07:27:20;;;;;;;4.90;3.80;;;;;;;19.88;55.00;97772.84;110120;1250;59698;-68
2022/05/27 07:29:50;;;;;;;4.70;3.70;;;;;;;19.69;54.77;97772.77;110121;1250;71381;-68
2022/05/27 07:32:19;;;;;;;4.30;3.00;;;;;;;19.75;54.44;97775.91;110147;1250;68495;-71
2022/05/27 07:34:48;;;;;;;4.10;3.20;;;;;;;19.65;54.93;97773.78;109795;1251;69476;-70
2022/05/27 07:37:17;;;;;;;3.30;3.00;;;;;;;19.66;54.65;97775.30;110071;1248;59747;-69
2022/05/27 07:39:46;;;;;;;4.50;3.60;;;;;;;19.64;55.17;97769.48;110072;1248;59612;-71
2022/05/27 07:42:15;;;;;;;;;;;;;;;19.79;53.53;97765.08;110055;1250;71455;-69
2022/05/27 07:44:44;;;;;;;4.60;3.40;;;;;;;19.69;54.24;97770.12;110147;1250;68575;-71
2022/05/27 07:47:13;;;;;;;4.30;3.90;;;;;;;19.80;54.34;97770.25;110086;1250;69445;-71
2022/05/27 07:49:42;;;;;;;4.40;3.90;;;;;;;19.90;53.65;97769.94;109908;1250;59732;-71
2022/05/27 07:52:12;;;;;;;4.80;3.60;;;;;;;19.81;53.73;97769.53;109992;1250;59720;-67
2022/05/27 07:54:41;;;;;;;5.10;3.90;;;;;;;19.86;54.81;97769.21;110173;1249;70985;-71
2022/05/27 07:57:25;;;;;;;4.60;3.30;;;;;;;20.13;54.25;97773.55;110005;1248;69175;-68
2022/05/27 07:59:54;;;;;;;7.50;3.30;;;;;;;20.39;53.90;97771.81;109901;1250;69418;-71
2022/05/27 08:02:25;;;;;;;3.70;2.70;;;;;;;20.77;52.72;97765.98;109938;1250;59705;-70
2022/05/27 08:04:54;;;;;;;5.00;3.40;;;;;;;21.17;51.25;97762.33;109936;1250;59707;-70
2022/05/27 08:07:26;;;;;;;3.90;2.80;;;;;;;21.63;50.71;97761.97;109766;1250;70777;-72
2022/05/27 08:09:55;;;;;;;4.10;3.10;;;;;;;21.98;49.46;97756.73;110140;1248;67875;-68
2022/05/27 08:12:25;;;;;;;3.80;3.20;;;;;;;22.47;47.82;97758.71;110114;1250;68659;-71
2022/05/27 08:14:53;;;;;;;4.80;3.20;;;;;;;22.69;46.50;97752.61;110184;1250;59745;-71
2022/05/27 08:17:23;;;;;;;;;;;;;;;22.94;46.55;97753.77;110164;1250;59650;-72
2022/05/27 08:19:52;;;;;;;4.20;3.20;;;;;;;23.18;46.71;97747.33;110086;1249;71556;-72
2022/05/27 08:22:21;;;;;;;3.90;3.40;;;;;;;23.16;44.89;97744.81;109951;1250;68618;-72
2022/05/27 08:24:50;;;;;;;3.60;3.20;;;;;;;22.99;44.10;97740.59;110127;1249;69442;-73
2022/05/27 08:27:19;;;;;;;3.10;2.70;;;;;;;23.06;44.36;97734.27;109800;1251;59654;-72
2022/05/27 08:29:48;;;;;;;3.10;2.50;;;;;;;23.27;44.50;97731.04;109918;1251;59686;-72
2022/05/27 08:32:17;;;;;;;;;;;;;;;23.47;42.81;97733.06;109753;1251;71606;-71
2022/05/27 08:40:36;;;;;;;2.30;2.10;;;;;;;23.81;42.97;97733.20;110173;1250;59698;-69
2022/05/27 08:43:47;;;;;;;3.20;2.50;;;;;;;23.67;42.90;97727.41;110162;1250;59686;-68
2022/05/27 08:46:45;;;;;;;2.70;2.10;;;;;;;24.35;41.62;97725.64;109858;1251;71549;-70
2022/05/27 08:49:21;;;;;;;2.70;1.80;;;;;;;24.71;40.56;97719.59;109890;1251;67944;-69
2022/05/27 08:51:56;;;;;;;3.00;2.50;;;;;;;24.88;40.29;97718.83;110067;1250;69306;-71
2022/05/27 08:54:44;;;;;;;3.70;1.90;;;;;;;24.42;40.30;97723.33;110160;1250;59753;-71
2022/05/27 09:00:14;;;;;;;5.30;2.50;;;;;;;24.83;39.65;97711.39;110161;1250;71551;-67
2022/05/27 09:02:45;;;;;;;3.40;2.50;;;;;;;24.98;39.51;97709.73;110140;1250;68698;-70
2022/05/27 09:05:21;;;;;;;2.70;2.40;;;;;;;24.83;39.30;97703.41;110136;1250;69423;-70
2022/05/27 09:08:01;;;;;;;3.10;2.10;;;;;;;24.80;40.37;97700.17;109977;1249;59697;-71
2022/05/27 09:11:07;;;;;;;3.40;2.40;;;;;;;25.18;38.50;97695.59;110135;1250;59747;-70
2022/05/27 09:14:08;;;;;;;2.40;1.90;;;;;;;25.13;38.60;97694.73;110192;1250;71467;-71
2022/05/27 09:16:57;;;;;;;2.40;2.00;;;;;;;25.42;38.46;97695.02;109953;1250;69152;-71
2022/05/27 09:20:02;;;;;;;2.20;1.70;;;;;;;25.22;39.65;97682.56;110116;1250;68858;-68
2022/05/27 09:22:37;;;;;;;3.40;2.10;;;;;;;25.23;38.70;97684.80;110139;1250;59815;-70
2022/05/27 09:25:15;;;;;;;2.70;2.00;;;;;;;25.21;38.79;97681.26;110116;1250;59660;-67
2022/05/27 09:28:10;;;;;;;2.20;1.90;;;;;;;25.25;38.03;97676.88;110135;1249;71522;-70
2022/05/27 09:30:39;;;;;;;4.30;2.20;;;;;;;25.40;38.24;97671.34;110160;1249;68601;-71
2022/05/27 09:33:16;;;;;;;2.20;2.00;;;;;;;25.16;37.57;97668.11;109944;1250;69264;-68
2022/05/27 09:35:50;;;;;;;2.70;2.10;;;;;;;25.37;36.88;97666.64;109915;1249;59730;-68
2022/05/27 09:38:21;;;;;;;3.80;2.70;;;;;;;24.88;38.90;97667.00;109901;1250;59771;-69
2022/05/27 09:41:03;;;;;;;2.70;2.20;;;;;;;25.03;37.72;97657.14;109963;1249;70757;-70
2022/05/27 09:43:53;;;;;;;2.70;1.80;;;;;;;25.53;37.31;97654.80;109974;1250;68629;-70
2022/05/27 09:46:30;;;;;;;2.60;1.90;;;;;;;25.69;36.78;97652.14;109978;1250;69460;-69
2022/05/27 09:48:59;;;;;;;2.40;1.40;;;;;;;26.28;36.08;97652.23;109770;1251;59721;-69
2022/05/27 09:51:31;;;;;;;1.80;1.50;;;;;;;26.53;35.18;97655.85;109978;1250;59655;-70
2022/05/27 09:54:17;;;;;;;2.30;1.60;;;;;;;26.28;35.73;97649.89;110017;1251;71543;-70
2022/05/27 09:57:13;;;;;;;3.80;1.50;;;;;;;25.52;36.60;97645.35;109984;1250;67816;-68
2022/05/27 09:59:48;;;;;;;2.30;1.80;;;;;;;25.25;37.54;97638.17;109839;1250;69543;-69
2022/05/27 10:02:16;;;;;;;2.50;1.80;;;;;;;25.11;36.98;97632.96;109898;1250;59690;-72
2022/05/27 10:05:15;;;;;;;1.80;1.40;;;;;;;23.89;38.46;97638.30;109973;1251;59703;-68
2022/05/27 10:07:50;;;;;;;2.00;1.70;;;;;;;23.54;39.23;97641.84;109904;1250;71766;-68
2022/05/27 10:10:40;;;;;;;2.30;1.90;;;;;;;22.83;41.21;97641.21;109765;1250;68721;-70
2022/05/27 10:13:34;;;;;;;2.50;1.80;;;;;;;22.45;42.31;97640.10;109743;1250;69586;-72
2022/05/27 10:16:11;;;;;;;3.60;2.10;;;;;;;21.87;42.89;97637.59;109971;1251;59745;-71
2022/05/27 10:18:44;;;;;;;2.60;1.80;;;;;;;21.80;43.53;97637.65;110013;1251;59740;-69
2022/05/27 10:21:19;;;;;;;3.40;1.80;;;;;;;21.68;43.89;97639.21;109904;1250;71594;-68
2022/05/27 10:23:54;;;;;;;3.00;1.80;;;;;;;21.51;44.89;97641.34;109975;1250;68747;-68
2022/05/27 10:26:29;;;;;;;3.90;2.20;;;;;;;21.55;44.37;97635.73;109788;1249;68784;-69
2022/05/27 10:29:12;;;;;;;3.40;1.70;;;;;;;21.39;45.26;97634.19;109941;1250;59701;-68
2022/05/27 10:31:53;;;;;;;2.80;1.70;;;;;;;21.52;44.93;97631.84;110012;1250;59701;-69
2022/05/27 10:34:42;;;;;;;2.80;1.70;;;;;;;21.64;45.03;97633.08;109927;1251;70780;-69
2022/05/27 10:37:30;;;;;;;2.50;2.00;;;;;;;21.69;44.65;97634.61;110014;1250;67860;-70
2022/05/27 10:40:28;;;;;;;2.80;2.40;;;;;;;21.74;44.64;97630.16;109987;1250;68685;-67
2022/05/27 10:43:15;;;;;;;2.40;1.80;;;;;;;21.65;44.47;97627.99;109997;1250;59750;-70
2022/05/27 10:45:47;;;;;;;3.10;1.50;;;;;;;21.81;44.22;97622.39;109966;1251;59699;-72
2022/05/27 10:48:40;;;;;;;3.00;1.70;;;;;;;22.02;44.20;97618.58;109827;1251;70779;-69
2022/05/27 10:51:40;;;;;;;3.00;1.90;;;;;;;22.21;44.44;97615.19;109938;1249;68569;-67
2022/05/27 10:54:39;;;;;;;2.30;1.70;;;;;;;22.43;44.11;97614.23;109989;1250;69425;-68
2022/05/27 11:02:58;;;;;;;2.30;1.80;;;;;;;21.92;44.51;97607.19;109960;1249;71526;-67
2022/05/27 11:05:57;;;;;;;3.30;1.70;;;;;;;22.00;43.98;97609.74;109925;1250;67903;-71
2022/05/27 11:08:30;;;;;;;2.60;1.70;;;;;;;21.99;44.23;97606.36;109863;1251;69869;-68
2022/05/27 11:11:18;;;;;;;3.00;2.10;;;;;;;21.99;45.07;97599.30;109961;1250;59709;-70
2022/05/27 11:16:58;;;;;;;3.40;2.60;;;;;;;21.78;44.89;97588.55;109971;1250;71611;-67
2022/05/27 11:20:09;;;;;;;5.00;2.10;;;;;;;21.82;44.88;97584.70;109994;1250;69649;-72
2022/05/27 11:23:03;;;;;;;2.40;1.70;;;;;;;22.05;45.35;97581.19;109947;1251;69279;-68
2022/05/27 11:25:45;;;;;;;2.90;1.90;;;;;;;22.28;44.28;97576.48;109934;1250;59688;-69
2022/05/27 11:28:49;;;;;;;3.50;2.30;;;;;;;22.53;44.13;97572.17;109901;1250;59747;-71
2022/05/27 11:31:30;;;;;;;3.80;1.80;;;;;;;22.71;43.20;97569.06;109879;1249;71567;-69
2022/05/27 11:34:39;;;;;;;4.20;2.10;;;;;;;22.91;42.13;97569.36;109988;1249;68204;-69
2022/05/27 11:37:18;;;;;;;3.60;2.50;;;;;;;22.99;41.68;97568.39;109908;1250;68668;-67
2022/05/27 11:40:12;;;;;;;2.90;2.30;;;;;;;22.92;41.79;97561.98;109991;1250;59710;-68
2022/05/27 11:42:46;;;;;;;2.70;1.80;;;;;;;22.78;41.99;97555.39;109948;1250;59696;-67
2022/05/27 11:45:25;;;;;;;2.40;2.00;;;;;;;22.84;41.88;97549.55;109998;1250;71374;-71
2022/05/27 11:48:06;;;;;;;2.90;1.90;;;;;;;22.87;42.47;97549.23;109954;1250;67670;-70
2022/05/27 11:50:59;;;;;;;2.90;2.00;;;;;;;22.82;42.26;97547.33;109902;1250;69449;-67
2022/05/27 11:53:28;;;;;;;3.50;2.30;;;;;;;23.32;41.23;97543.46;109951;1250;59723;-70
2022/05/27 11:56:09;;;;;;;2.90;2.00;;;;;;;23.74;39.99;97535.83;110007;1249;59683;-70
2022/05/27 11:58:47;;;;;;;3.60;2.40;;;;;;;23.98;39.79;97528.02;109700;1251;70769;-68
2022/05/27 12:01:35;;;;;;;2.80;1.70;;;;;;;24.25;38.95;97524.04;109951;1250;68696;-72
2022/05/27 12:04:10;;;;;;;3.00;1.80;;;;;;;24.15;38.49;97520.17;109909;1251;69481;-73
2022/05/27 12:06:58;;;;;;;3.50;2.20;;;;;;;24.19;39.14;97514.29;109980;1250;59664;-71
2022/05/27 12:09:35;;;;;;;3.70;1.80;;;;;;;24.20;39.13;97509.61;109968;1250;59767;-70
2022/05/27 12:12:21;;;;;;;2.10;1.50;;;;;;;24.01;39.62;97511.52;109829;1250;70525;-72
2022/05/27 12:15:09;;;;;;;2.90;1.50;;;;;;;23.80;39.73;97510.73;109951;1250;68498;-72
2022/05/27 12:17:47;;;;;;;3.00;2.00;;;;;;;24.26;39.39;97504.19;109996;1250;68749;-70
2022/05/27 12:20:23;;;;;;;2.20;1.90;;;;;;;24.44;38.96;97499.76;109821;1250;59718;-68
2022/05/27 12:22:55;;;;;;;4.80;1.80;;;;;;;24.03;39.55;97493.63;109747;1251;59757;-68
2022/05/27 12:25:35;;;;;;;3.10;1.90;;;;;;;23.97;39.13;97487.63;109931;1249;71645;-73
2022/05/27 12:28:08;;;;;;;2.00;1.30;;;;;;;24.16;39.00;97483.41;109776;1251;66733;-71
2022/05/27 12:30:41;;;;;;;2.20;1.90;;;;;;;24.63;38.68;97478.84;109928;1250;68576;-70
2022/05/27 12:33:19;;;;;;;3.30;1.70;;;;;;;25.03;37.39;97479.83;109711;1250;59806;-68
2022/05/27 12:36:12;;;;;;;2.10;1.60;;;;;;;24.80;36.76;97476.41;110060;1250;59634;-68
2022/05/27 12:38:52;;;;;;;2.20;1.80;;;;;;;24.63;37.36;97470.63;109967;1250;70741;-68
2022/05/27 12:41:38;;;;;;;2.50;1.40;;;;;;;24.79;36.32;97473.81;110125;1249;67689;-69
2022/05/27 12:44:19;;;;;;;1.70;1.40;;;;;;;24.82;36.22;97462.06;110127;1248;69280;-69